ENGN weather

Public forecast

Using degrees Celsius for public forecast. Weather courtesy of forecast.io.

Closest aviation weather report (METAR) to Folldal Grimsmoe Airport

Closest report is Røros Airport, 44.1 nm (81.6 km) NE. Retrieved 2020/08/09 08:20 UTC (0 seconds ago):

ENRO 090820Z AUTO 36005KT 330V040 9999NDV SCT035/// 12/05 Q1027

Closest aviation forecast (TAF) to Folldal Grimsmoe Airport

Closest forecast is Trondheim Airport Værnes, 83.5 nm (154.7 km) NNE. Retrieved 2020/08/09 06:57 UTC (1 hour ago):

TAF ENVA 090500Z 0906/1006 VRB05KT 9999 FEW002 BKN030